sensor_id;sensor_type;location;lat;lon;timestamp;pressure;altitude;pressure_sealevel;temperature;humidity
5126;BME280;63008;53.112;8.896;2023-04-23T00:00:30;100579.22;;;14.55;93.47
5126;BME280;63008;53.112;8.896;2023-04-23T00:02:33;100581.47;;;14.49;94.04
5126;BME280;63008;53.112;8.896;2023-04-23T00:04:36;100584.75;;;14.36;92.09
5126;BME280;63008;53.112;8.896;2023-04-23T00:06:38;100594.38;;;14.26;90.99
5126;BME280;63008;53.112;8.896;2023-04-23T00:08:40;100596.56;;;14.17;90.35
5126;BME280;63008;53.112;8.896;2023-04-23T00:10:41;100595.47;;;14.06;87.66
5126;BME280;63008;53.112;8.896;2023-04-23T00:12:43;100600.03;;;13.99;87.76
5126;BME280;63008;53.112;8.896;2023-04-23T00:14:44;100596.81;;;13.78;89.00
5126;BME280;63008;53.112;8.896;2023-04-23T00:16:45;100589.88;;;13.84;88.84
5126;BME280;63008;53.112;8.896;2023-04-23T00:18:46;100596.44;;;13.79;89.24
5126;BME280;63008;53.112;8.896;2023-04-23T00:20:48;100590.56;;;13.81;89.24
5126;BME280;63008;53.112;8.896;2023-04-23T00:22:49;100600.09;;;13.83;89.61
5126;BME280;63008;53.112;8.896;2023-04-23T00:24:50;100596.66;;;13.71;89.88
5126;BME280;63008;53.112;8.896;2023-04-23T00:26:50;100598.19;;;13.53;90.32
5126;BME280;63008;53.112;8.896;2023-04-23T00:28:52;100603.16;;;13.47;90.63
5126;BME280;63008;53.112;8.896;2023-04-23T00:30:53;100601.72;;;13.53;90.78
5126;BME280;63008;53.112;8.896;2023-04-23T00:32:54;100601.72;;;13.53;90.03
5126;BME280;63008;53.112;8.896;2023-04-23T00:34:55;100612.69;;;13.50;90.22
5126;BME280;63008;53.112;8.896;2023-04-23T00:36:56;100607.69;;;13.40;90.60
5126;BME280;63008;53.112;8.896;2023-04-23T00:38:57;100607.69;;;13.40;90.80
5126;BME280;63008;53.112;8.896;2023-04-23T00:40:58;100608.66;;;13.47;90.12
5126;BME280;63008;53.112;8.896;2023-04-23T00:42:59;100609.38;;;13.44;90.08
5126;BME280;63008;53.112;8.896;2023-04-23T00:45:01;100607.97;;;13.35;89.30
5126;BME280;63008;53.112;8.896;2023-04-23T00:47:03;100616.41;;;13.42;89.20
5126;BME280;63008;53.112;8.896;2023-04-23T00:49:05;100611.50;;;13.35;89.18
5126;BME280;63008;53.112;8.896;2023-04-23T00:51:06;100615.78;;;13.33;89.15
5126;BME280;63008;53.112;8.896;2023-04-23T00:53:07;100616.94;;;13.32;87.75
5126;BME280;63008;53.112;8.896;2023-04-23T00:55:08;100615.97;;;13.24;87.93
5126;BME280;63008;53.112;8.896;2023-04-23T00:57:09;100615.44;;;13.19;86.17
5126;BME280;63008;53.112;8.896;2023-04-23T00:59:11;100615.53;;;13.22;86.14
5126;BME280;63008;53.112;8.896;2023-04-23T01:01:12;100616.22;;;13.19;86.12
5126;BME280;63008;53.112;8.896;2023-04-23T01:03:14;100618.78;;;13.12;85.50
5126;BME280;63008;53.112;8.896;2023-04-23T01:05:18;100620.28;;;13.10;85.21
5126;BME280;63008;53.112;8.896;2023-04-23T01:07:20;100611.03;;;13.02;85.10
5126;BME280;63008;53.112;8.896;2023-04-23T01:09:21;100623.22;;;13.01;85.45
5126;BME280;63008;53.112;8.896;2023-04-23T01:11:22;100616.03;;;12.85;86.45
5126;BME280;63008;53.112;8.896;2023-04-23T01:13:23;100609.50;;;12.89;87.05
5126;BME280;63008;53.112;8.896;2023-04-23T01:15:29;100614.75;;;12.94;86.75
5126;BME280;63008;53.112;8.896;2023-04-23T01:17:30;100615.66;;;12.98;86.99
5126;BME280;63008;53.112;8.896;2023-04-23T01:19:32;100617.53;;;12.94;87.05
5126;BME280;63008;53.112;8.896;2023-04-23T01:21:34;100607.53;;;12.90;87.45
5126;BME280;63008;53.112;8.896;2023-04-23T01:23:35;100607.53;;;12.90;88.38
5126;BME280;63008;53.112;8.896;2023-04-23T01:25:36;100609.72;;;12.84;88.65
5126;BME280;63008;53.112;8.896;2023-04-23T01:27:37;100615.34;;;12.88;88.36
5126;BME280;63008;53.112;8.896;2023-04-23T01:29:39;100613.09;;;12.78;88.67
5126;BME280;63008;53.112;8.896;2023-04-23T01:31:40;100616.19;;;12.76;89.28
5126;BME280;63008;53.112;8.896;2023-04-23T01:33:43;100615.03;;;12.77;89.23
5126;BME280;63008;53.112;8.896;2023-04-23T01:35:44;100628.38;;;12.75;89.36
5126;BME280;63008;53.112;8.896;2023-04-23T01:37:46;100622.97;;;12.79;89.06
5126;BME280;63008;53.112;8.896;2023-04-23T01:39:48;100622.88;;;12.75;89.11
5126;BME280;63008;53.112;8.896;2023-04-23T01:41:49;100630.13;;;12.68;88.47
5126;BME280;63008;53.112;8.896;2023-04-23T01:43:50;100628.22;;;12.57;88.51
5126;BME280;63008;53.112;8.896;2023-04-23T01:45:51;100630.06;;;12.53;88.14
5126;BME280;63008;53.112;8.896;2023-04-23T01:47:52;100631.31;;;12.55;87.62
5126;BME280;63008;53.112;8.896;2023-04-23T01:49:53;100635.81;;;12.48;87.28
5126;BME280;63008;53.112;8.896;2023-04-23T01:51:55;100640.72;;;12.54;87.48
5126;BME280;63008;53.112;8.896;2023-04-23T01:53:56;100632.84;;;12.41;87.43
5126;BME280;63008;53.112;8.896;2023-04-23T01:55:59;100643.09;;;12.28;87.68
5126;BME280;63008;53.112;8.896;2023-04-23T01:58:00;100640.09;;;12.33;87.71
5126;BME280;63008;53.112;8.896;2023-04-23T02:00:07;100644.00;;;12.32;88.06
5126;BME280;63008;53.112;8.896;2023-04-23T02:02:08;100652.00;;;12.37;87.25
5126;BME280;63008;53.112;8.896;2023-04-23T02:04:14;100642.28;;;12.40;87.88
5126;BME280;63008;53.112;8.896;2023-04-23T02:06:16;100651.13;;;12.33;87.08
5126;BME280;63008;53.112;8.896;2023-04-23T02:08:17;100648.69;;;12.32;87.47
5126;BME280;63008;53.112;8.896;2023-04-23T02:10:18;100644.34;;;12.31;87.22
5126;BME280;63008;53.112;8.896;2023-04-23T02:12:20;100642.75;;;12.30;87.28
5126;BME280;63008;53.112;8.896;2023-04-23T02:14:21;100644.38;;;12.19;87.66
5126;BME280;63008;53.112;8.896;2023-04-23T02:16:22;100644.50;;;12.10;88.32
5126;BME280;63008;53.112;8.896;2023-04-23T02:18:24;100644.28;;;12.03;88.73
5126;BME280;63008;53.112;8.896;2023-04-23T02:20:25;100643.13;;;12.04;89.13
5126;BME280;63008;53.112;8.896;2023-04-23T02:22:26;100640.03;;;12.06;88.22
5126;BME280;63008;53.112;8.896;2023-04-23T02:24:28;100641.88;;;12.02;88.22
5126;BME280;63008;53.112;8.896;2023-04-23T02:26:28;100642.34;;;11.92;88.24
5126;BME280;63008;53.112;8.896;2023-04-23T02:28:29;100640.53;;;11.84;89.18
5126;BME280;63008;53.112;8.896;2023-04-23T02:30:32;100644.44;;;11.83;88.69
5126;BME280;63008;53.112;8.896;2023-04-23T02:32:34;100646.25;;;11.79;88.76
5126;BME280;63008;53.112;8.896;2023-04-23T02:34:36;100652.66;;;11.71;88.51
5126;BME280;63008;53.112;8.896;2023-04-23T02:36:37;100653.38;;;11.68;88.08
5126;BME280;63008;53.112;8.896;2023-04-23T02:38:38;100648.09;;;11.75;87.86
5126;BME280;63008;53.112;8.896;2023-04-23T02:40:44;100650.50;;;11.76;87.46
5126;BME280;63008;53.112;8.896;2023-04-23T02:42:45;100654.97;;;11.69;87.24
5126;BME280;63008;53.112;8.896;2023-04-23T02:44:46;100656.81;;;11.65;87.36
5126;BME280;63008;53.112;8.896;2023-04-23T02:46:47;100653.47;;;11.59;87.34
5126;BME280;63008;53.112;8.896;2023-04-23T02:48:48;100657.22;;;11.55;87.60
5126;BME280;63008;53.112;8.896;2023-04-23T02:50:49;100660.53;;;11.48;87.59
5126;BME280;63008;53.112;8.896;2023-04-23T02:52:50;100660.19;;;11.50;87.52
5126;BME280;63008;53.112;8.896;2023-04-23T02:54:51;100658.13;;;11.47;87.66
5126;BME280;63008;53.112;8.896;2023-04-23T02:56:52;100663.38;;;11.40;87.65
5126;BME280;63008;53.112;8.896;2023-04-23T02:58:53;100660.75;;;11.43;88.06
5126;BME280;63008;53.112;8.896;2023-04-23T03:00:54;100666.03;;;11.36;88.13
5126;BME280;63008;53.112;8.896;2023-04-23T03:02:55;100668.50;;;11.29;88.06
5126;BME280;63008;53.112;8.896;2023-04-23T03:04:56;100660.81;;;11.23;88.40
5126;BME280;63008;53.112;8.896;2023-04-23T03:06:57;100674.19;;;11.12;88.84
5126;BME280;63008;53.112;8.896;2023-04-23T03:08:58;100672.94;;;11.22;89.21
5126;BME280;63008;53.112;8.896;2023-04-23T03:10:59;100673.19;;;11.17;88.83
5126;BME280;63008;53.112;8.896;2023-04-23T03:13:00;100676.16;;;11.12;89.18
5126;BME280;63008;53.112;8.896;2023-04-23T03:15:01;100677.47;;;11.06;89.53
5126;BME280;63008;53.112;8.896;2023-04-23T03:17:02;100677.16;;;11.07;89.20
5126;BME280;63008;53.112;8.896;2023-04-23T03:19:03;100683.25;;;11.13;88.90
5126;BME280;63008;53.112;8.896;2023-04-23T03:21:04;100678.63;;;11.05;89.02
5126;BME280;63008;53.112;8.896;2023-04-23T03:23:05;100685.72;;;11.06;89.48
5126;BME280;63008;53.112;8.896;2023-04-23T03:25:06;100680.81;;;11.11;88.63
5126;BME280;63008;53.112;8.896;2023-04-23T03:27:09;100680.97;;;11.15;88.32
5126;BME280;63008;53.112;8.896;2023-04-23T03:29:10;100681.88;;;11.19;88.73
5126;BME280;63008;53.112;8.896;2023-04-23T03:31:11;100670.88;;;11.19;87.97
5126;BME280;63008;53.112;8.896;2023-04-23T03:33:12;100673.19;;;11.17;88.02
5126;BME280;63008;53.112;8.896;2023-04-23T03:35:13;100682.25;;;11.29;88.22
5126;BME280;63008;53.112;8.896;2023-04-23T03:37:14;100677.66;;;11.33;88.11
5126;BME280;63008;53.112;8.896;2023-04-23T03:39:15;100670.94;;;11.31;88.33
5126;BME280;63008;53.112;8.896;2023-04-23T03:41:15;100667.00;;;11.20;88.30
5126;BME280;63008;53.112;8.896;2023-04-23T03:43:17;100677.97;;;11.20;87.55
5126;BME280;63008;53.112;8.896;2023-04-23T03:45:18;100682.69;;;11.19;87.47
5126;BME280;63008;53.112;8.896;2023-04-23T03:47:19;100686.44;;;11.15;88.23
5126;BME280;63008;53.112;8.896;2023-04-23T03:49:20;100683.56;;;11.11;88.15
5126;BME280;63008;53.112;8.896;2023-04-23T03:51:21;100689.97;;;11.03;87.34
5126;BME280;63008;53.112;8.896;2023-04-23T03:53:22;100691.22;;;11.06;87.10
5126;BME280;63008;53.112;8.896;2023-04-23T03:55:23;100695.09;;;11.05;87.67
5126;BME280;63008;53.112;8.896;2023-04-23T03:57:24;100708.38;;;11.03;87.28
5126;BME280;63008;53.112;8.896;2023-04-23T03:59:25;100692.81;;;11.07;86.95
5126;BME280;63008;53.112;8.896;2023-04-23T04:01:26;100694.19;;;11.01;87.16
5126;BME280;63008;53.112;8.896;2023-04-23T04:03:27;100693.94;;;10.94;87.64
5126;BME280;63008;53.112;8.896;2023-04-23T04:05:28;100685.56;;;10.90;88.02
5126;BME280;63008;53.112;8.896;2023-04-23T04:07:29;100689.31;;;10.86;88.12
5126;BME280;63008;53.112;8.896;2023-04-23T04:09:30;100690.13;;;10.87;88.48
5126;BME280;63008;53.112;8.896;2023-04-23T04:11:31;100690.66;;;11.00;88.26
5126;BME280;63008;53.112;8.896;2023-04-23T04:13:32;100700.25;;;11.06;87.81
5126;BME280;63008;53.112;8.896;2023-04-23T04:15:33;100697.38;;;11.03;88.42
5126;BME280;63008;53.112;8.896;2023-04-23T04:17:34;100704.47;;;11.04;88.10
5126;BME280;63008;53.112;8.896;2023-04-23T04:19:35;100707.69;;;11.06;87.64
5126;BME280;63008;53.112;8.896;2023-04-23T04:21:36;100704.38;;;11.00;87.91
5126;BME280;63008;53.112;8.896;2023-04-23T04:23:37;100706.16;;;10.96;88.15
5126;BME280;63008;53.112;8.896;2023-04-23T04:25:39;100706.63;;;10.98;87.86
5126;BME280;63008;53.112;8.896;2023-04-23T04:27:40;100704.25;;;10.97;87.34
5126;BME280;63008;53.112;8.896;2023-04-23T04:29:41;100705.84;;;10.98;86.51
5126;BME280;63008;53.112;8.896;2023-04-23T04:31:42;100717.16;;;10.96;85.99
5126;BME280;63008;53.112;8.896;2023-04-23T04:33:43;100705.91;;;10.89;86.49
5126;BME280;63008;53.112;8.896;2023-04-23T04:35:45;100703.97;;;10.90;86.84
5126;BME280;63008;53.112;8.896;2023-04-23T04:37:48;100704.38;;;10.80;87.33
5126;BME280;63008;53.112;8.896;2023-04-23T04:39:49;100706.59;;;10.87;86.99
5126;BME280;63008;53.112;8.896;2023-04-23T04:41:50;100709.13;;;10.91;86.74
5126;BME280;63008;53.112;8.896;2023-04-23T04:43:52;100711.94;;;11.03;86.09
5126;BME280;63008;53.112;8.896;2023-04-23T04:45:54;100711.13;;;11.03;85.89
5126;BME280;63008;53.112;8.896;2023-04-23T04:47:55;100710.44;;;11.06;85.32
5126;BME280;63008;53.112;8.896;2023-04-23T04:49:56;100709.44;;;10.90;85.31
5126;BME280;63008;53.112;8.896;2023-04-23T04:51:57;100705.47;;;10.88;85.39
5126;BME280;63008;53.112;8.896;2023-04-23T04:53:58;100721.03;;;10.95;85.55
5126;BME280;63008;53.112;8.896;2023-04-23T04:55:59;100720.09;;;10.91;85.68
5126;BME280;63008;53.112;8.896;2023-04-23T04:58:00;100724.00;;;10.90;84.81
5126;BME280;63008;53.112;8.896;2023-04-23T05:00:07;100724.06;;;10.82;85.38
5126;BME280;63008;53.112;8.896;2023-04-23T05:02:18;100723.13;;;10.78;85.89
5126;BME280;63008;53.112;8.896;2023-04-23T05:04:21;100719.50;;;10.86;86.20
5126;BME280;63008;53.112;8.896;2023-04-23T05:06:22;100725.81;;;10.87;85.86
5126;BME280;63008;53.112;8.896;2023-04-23T05:08:23;100726.75;;;10.90;85.59
5126;BME280;63008;53.112;8.896;2023-04-23T05:10:24;100726.81;;;11.02;85.30
5126;BME280;63008;53.112;8.896;2023-04-23T05:12:26;100723.91;;;10.99;84.92
5126;BME280;63008;53.112;8.896;2023-04-23T05:14:27;100724.38;;;11.01;84.99
5126;BME280;63008;53.112;8.896;2023-04-23T05:16:28;100726.53;;;10.95;84.45
5126;BME280;63008;53.112;8.896;2023-04-23T05:18:29;100726.66;;;10.99;84.34
5126;BME280;63008;53.112;8.896;2023-04-23T05:20:30;100732.84;;;10.96;84.00
5126;BME280;63008;53.112;8.896;2023-04-23T05:22:31;100726.88;;;10.94;84.30
5126;BME280;63008;53.112;8.896;2023-04-23T05:24:32;100721.84;;;10.96;84.19
5126;BME280;63008;53.112;8.896;2023-04-23T05:26:33;100729.41;;;10.99;84.00
5126;BME280;63008;53.112;8.896;2023-04-23T05:28:35;100720.34;;;10.98;84.09
5126;BME280;63008;53.112;8.896;2023-04-23T05:30:36;100722.78;;;11.00;84.25
5126;BME280;63008;53.112;8.896;2023-04-23T05:32:37;100715.69;;;10.99;83.83
5126;BME280;63008;53.112;8.896;2023-04-23T05:34:38;100716.97;;;11.13;83.64
5126;BME280;63008;53.112;8.896;2023-04-23T05:36:39;100727.03;;;11.09;83.49
5126;BME280;63008;53.112;8.896;2023-04-23T05:38:40;100712.78;;;11.16;83.27
5126;BME280;63008;53.112;8.896;2023-04-23T05:40:41;100726.91;;;11.06;83.10
5126;BME280;63008;53.112;8.896;2023-04-23T05:42:42;100722.91;;;11.03;83.78
5126;BME280;63008;53.112;8.896;2023-04-23T05:44:43;100726.38;;;11.12;82.83
5126;BME280;63008;53.112;8.896;2023-04-23T05:46:44;100736.03;;;11.18;81.79
5126;BME280;63008;53.112;8.896;2023-04-23T05:48:45;100744.81;;;11.12;82.20
5126;BME280;63008;53.112;8.896;2023-04-23T05:50:46;100746.81;;;11.03;82.52
5126;BME280;63008;53.112;8.896;2023-04-23T05:52:49;100737.66;;;10.99;83.07
5126;BME280;63008;53.112;8.896;2023-04-23T05:54:50;100747.94;;;11.02;83.14
5126;BME280;63008;53.112;8.896;2023-04-23T05:56:51;100752.09;;;11.08;82.60
5126;BME280;63008;53.112;8.896;2023-04-23T05:58:52;100742.38;;;11.10;82.48
5126;BME280;63008;53.112;8.896;2023-04-23T06:00:53;100738.63;;;11.15;82.11
5126;BME280;63008;53.112;8.896;2023-04-23T06:02:54;100733.13;;;11.15;82.45
5126;BME280;63008;53.112;8.896;2023-04-23T06:04:55;100733.75;;;11.20;82.68
5126;BME280;63008;53.112;8.896;2023-04-23T06:06:57;100725.97;;;11.22;82.08
5126;BME280;63008;53.112;8.896;2023-04-23T06:08:58;100729.53;;;11.35;81.63
5126;BME280;63008;53.112;8.896;2023-04-23T06:10:59;100732.75;;;11.37;81.95
5126;BME280;63008;53.112;8.896;2023-04-23T06:13:01;100733.44;;;11.34;82.07
5126;BME280;63008;53.112;8.896;2023-04-23T06:15:03;100732.97;;;11.32;82.07
5126;BME280;63008;53.112;8.896;2023-04-23T06:17:05;100736.50;;;11.32;82.07
5126;BME280;63008;53.112;8.896;2023-04-23T06:19:06;100728.63;;;11.31;82.07
5126;BME280;63008;53.112;8.896;2023-04-23T06:21:07;100729.75;;;11.30;81.89
5126;BME280;63008;53.112;8.896;2023-04-23T06:23:08;100726.06;;;11.26;81.88
5126;BME280;63008;53.112;8.896;2023-04-23T06:25:09;100720.38;;;11.31;81.82
5126;BME280;63008;53.112;8.896;2023-04-23T06:27:11;100727.94;;;11.34;81.68
5126;BME280;63008;53.112;8.896;2023-04-23T06:29:12;100737.31;;;11.33;82.13
5126;BME280;63008;53.112;8.896;2023-04-23T06:31:13;100726.78;;;11.35;81.69
5126;BME280;63008;53.112;8.896;2023-04-23T06:33:14;100722.75;;;11.32;82.44
5126;BME280;63008;53.112;8.896;2023-04-23T06:35:15;100723.34;;;11.38;82.30
5126;BME280;63008;53.112;8.896;2023-04-23T06:37:16;100718.41;;;11.31;81.69
5126;BME280;63008;53.112;8.896;2023-04-23T06:39:17;100712.31;;;11.26;81.42
5126;BME280;63008;53.112;8.896;2023-04-23T06:41:18;100711.78;;;11.32;81.17
5126;BME280;63008;53.112;8.896;2023-04-23T06:43:20;100710.63;;;11.33;80.49
5126;BME280;63008;53.112;8.896;2023-04-23T06:45:21;100710.31;;;11.35;80.87
5126;BME280;63008;53.112;8.896;2023-04-23T06:47:23;100717.63;;;11.31;80.40
5126;BME280;63008;53.112;8.896;2023-04-23T06:49:24;100720.09;;;11.24;81.04
5126;BME280;63008;53.112;8.896;2023-04-23T06:51:25;100716.47;;;11.32;81.17
5126;BME280;63008;53.112;8.896;2023-04-23T06:53:30;100714.44;;;11.41;81.31
5126;BME280;63008;53.112;8.896;2023-04-23T06:55:31;100712.72;;;11.48;81.10
5126;BME280;63008;53.112;8.896;2023-04-23T06:57:32;100710.50;;;11.62;80.70
5126;BME280;63008;53.112;8.896;2023-04-23T06:59:33;100714.88;;;11.75;80.11
5126;BME280;63008;53.112;8.896;2023-04-23T07:01:34;100710.88;;;11.85;79.18
5126;BME280;63008;53.112;8.896;2023-04-23T07:03:35;100708.47;;;11.71;79.40
5126;BME280;63008;53.112;8.896;2023-04-23T07:05:36;100714.66;;;11.80;79.08
5126;BME280;63008;53.112;8.896;2023-04-23T07:07:37;100712.59;;;11.77;79.50
5126;BME280;63008;53.112;8.896;2023-04-23T07:09:40;100711.00;;;11.76;79.58
5126;BME280;63008;53.112;8.896;2023-04-23T07:11:41;100708.91;;;11.85;79.10
5126;BME280;63008;53.112;8.896;2023-04-23T07:13:42;100713.41;;;11.90;79.22
5126;BME280;63008;53.112;8.896;2023-04-23T07:15:43;100704.91;;;11.95;79.01
5126;BME280;63008;53.112;8.896;2023-04-23T07:17:44;100705.84;;;11.87;79.17
5126;BME280;63008;53.112;8.896;2023-04-23T07:19:45;100709.97;;;11.81;78.64
5126;BME280;63008;53.112;8.896;2023-04-23T07:21:47;100713.59;;;11.73;77.90
5126;BME280;63008;53.112;8.896;2023-04-23T07:23:48;100712.09;;;11.63;78.16
5126;BME280;63008;53.112;8.896;2023-04-23T07:25:49;100716.56;;;11.56;78.36
5126;BME280;63008;53.112;8.896;2023-04-23T07:27:50;100715.41;;;11.57;78.22
5126;BME280;63008;53.112;8.896;2023-04-23T07:29:51;100718.97;;;11.57;78.38
5126;BME280;63008;53.112;8.896;2023-04-23T07:31:52;100717.00;;;11.58;78.58
5126;BME280;63008;53.112;8.896;2023-04-23T07:33:54;100718.97;;;11.57;79.13
5126;BME280;63008;53.112;8.896;2023-04-23T07:35:55;100711.53;;;11.58;79.30
5126;BME280;63008;53.112;8.896;2023-04-23T07:37:56;100712.94;;;11.64;78.84
5126;BME280;63008;53.112;8.896;2023-04-23T07:39:59;100715.91;;;11.71;78.86
5126;BME280;63008;53.112;8.896;2023-04-23T07:42:01;100726.13;;;11.94;79.08
5126;BME280;63008;53.112;8.896;2023-04-23T07:44:03;100714.06;;;12.11;78.22
5126;BME280;63008;53.112;8.896;2023-04-23T07:46:04;100723.22;;;12.15;75.10
5126;BME280;63008;53.112;8.896;2023-04-23T07:48:05;100707.31;;;12.20;74.48
5126;BME280;63008;53.112;8.896;2023-04-23T07:50:06;100707.88;;;12.26;74.27
5126;BME280;63008;53.112;8.896;2023-04-23T07:52:07;100698.91;;;12.41;73.69
5126;BME280;63008;53.112;8.896;2023-04-23T07:54:08;100700.06;;;12.52;73.84
5126;BME280;63008;53.112;8.896;2023-04-23T07:56:09;100702.81;;;12.52;71.67
5126;BME280;63008;53.112;8.896;2023-04-23T07:58:10;100706.78;;;12.54;69.70
5126;BME280;63008;53.112;8.896;2023-04-23T08:00:12;100703.81;;;12.59;69.74
5126;BME280;63008;53.112;8.896;2023-04-23T08:02:14;100709.41;;;12.63;70.17
5126;BME280;63008;53.112;8.896;2023-04-23T08:04:15;100706.56;;;12.59;70.75
5126;BME280;63008;53.112;8.896;2023-04-23T08:06:16;100712.53;;;12.49;70.17
5126;BME280;63008;53.112;8.896;2023-04-23T08:08:18;100704.75;;;12.51;69.16
5126;BME280;63008;53.112;8.896;2023-04-23T08:10:19;100698.75;;;12.61;68.71
5126;BME280;63008;53.112;8.896;2023-04-23T08:12:20;100701.13;;;12.74;68.34
5126;BME280;63008;53.112;8.896;2023-04-23T08:14:21;100696.38;;;12.87;67.43
5126;BME280;63008;53.112;8.896;2023-04-23T08:16:22;100694.22;;;13.08;67.52
5126;BME280;63008;53.112;8.896;2023-04-23T08:18:23;100694.06;;;13.16;65.42
5126;BME280;63008;53.112;8.896;2023-04-23T08:20:24;100686.88;;;13.12;65.71
5126;BME280;63008;53.112;8.896;2023-04-23T08:22:25;100689.16;;;13.10;64.85
5126;BME280;63008;53.112;8.896;2023-04-23T08:24:26;100686.63;;;13.17;64.61
5126;BME280;63008;53.112;8.896;2023-04-23T08:26:27;100678.09;;;13.22;64.17
5126;BME280;63008;53.112;8.896;2023-04-23T08:28:28;100663.53;;;13.37;65.28
5126;BME280;63008;53.112;8.896;2023-04-23T08:30:30;100673.34;;;13.50;64.84
5126;BME280;63008;53.112;8.896;2023-04-23T08:32:31;100666.94;;;13.61;64.20
5126;BME280;63008;53.112;8.896;2023-04-23T08:34:32;100670.06;;;13.75;63.06
5126;BME280;63008;53.112;8.896;2023-04-23T08:36:33;100657.41;;;13.74;62.78
5126;BME280;63008;53.112;8.896;2023-04-23T08:38:34;100664.16;;;13.77;60.94
5126;BME280;63008;53.112;8.896;2023-04-23T08:40:36;100667.97;;;13.72;60.17
5126;BME280;63008;53.112;8.896;2023-04-23T08:44:45;100660.94;;;14.06;60.71
5126;BME280;63008;53.112;8.896;2023-04-23T08:46:47;100658.81;;;14.34;61.49
5126;BME280;63008;53.112;8.896;2023-04-23T08:48:51;100647.56;;;14.42;60.34
5126;BME280;63008;53.112;8.896;2023-04-23T08:50:52;100654.13;;;14.53;60.06
5126;BME280;63008;53.112;8.896;2023-04-23T08:52:55;100647.97;;;14.78;58.62
5126;BME280;63008;53.112;8.896;2023-04-23T08:54:59;100646.81;;;14.79;56.27
5126;BME280;63008;53.112;8.896;2023-04-23T08:57:00;100640.31;;;14.91;57.09
5126;BME280;63008;53.112;8.896;2023-04-23T08:59:02;100641.09;;;15.10;58.16
5126;BME280;63008;53.112;8.896;2023-04-23T09:01:03;100643.84;;;15.29;58.08
5126;BME280;63008;53.112;8.896;2023-04-23T09:03:04;100642.31;;;15.13;57.86
5126;BME280;63008;53.112;8.896;2023-04-23T09:05:06;100644.63;;;15.30;58.52
5126;BME280;63008;53.112;8.896;2023-04-23T09:07:07;100644.84;;;15.63;55.84
5126;BME280;63008;53.112;8.896;2023-04-23T09:09:14;100647.50;;;15.82;57.49
5126;BME280;63008;53.112;8.896;2023-04-23T09:11:16;100643.47;;;16.28;54.87
5126;BME280;63008;53.112;8.896;2023-04-23T09:13:17;100644.28;;;16.54;55.43
5126;BME280;63008;53.112;8.896;2023-04-23T09:15:18;100648.63;;;16.84;56.82
5126;BME280;63008;53.112;8.896;2023-04-23T09:17:19;100646.06;;;17.02;57.80
5126;BME280;63008;53.112;8.896;2023-04-23T09:19:21;100636.81;;;17.67;52.99
5126;BME280;63008;53.112;8.896;2023-04-23T09:21:22;100630.88;;;18.19;51.23
5126;BME280;63008;53.112;8.896;2023-04-23T09:23:23;100626.69;;;18.49;49.70
5126;BME280;63008;53.112;8.896;2023-04-23T09:25:24;100629.59;;;18.74;49.42
5126;BME280;63008;53.112;8.896;2023-04-23T09:27:25;100634.03;;;18.96;49.09
5126;BME280;63008;53.112;8.896;2023-04-23T09:29:26;100627.25;;;18.90;54.38
5126;BME280;63008;53.112;8.896;2023-04-23T09:31:28;100619.69;;;18.76;49.07
5126;BME280;63008;53.112;8.896;2023-04-23T09:33:30;100610.19;;;18.98;48.80
5126;BME280;63008;53.112;8.896;2023-04-23T09:35:32;100613.50;;;19.60;46.78
5126;BME280;63008;53.112;8.896;2023-04-23T09:37:35;100617.88;;;20.03;45.83
5126;BME280;63008;53.112;8.896;2023-04-23T09:39:38;100624.63;;;20.02;44.99
5126;BME280;63008;53.112;8.896;2023-04-23T09:41:40;100616.25;;;19.88;43.46
5126;BME280;63008;53.112;8.896;2023-04-23T09:43:41;100607.13;;;20.12;43.59
5126;BME280;63008;53.112;8.896;2023-04-23T09:45:48;100613.47;;;20.19;43.51
5126;BME280;63008;53.112;8.896;2023-04-23T09:47:54;100605.53;;;19.83;44.00
5126;BME280;63008;53.112;8.896;2023-04-23T09:49:55;100599.97;;;20.07;43.37
5126;BME280;63008;53.112;8.896;2023-04-23T09:52:05;100595.50;;;20.38;44.34
5126;BME280;63008;53.112;8.896;2023-04-23T09:54:18;100607.81;;;20.54;43.94
5126;BME280;63008;53.112;8.896;2023-04-23T09:56:19;100595.84;;;20.53;42.73
5126;BME280;63008;53.112;8.896;2023-04-23T09:58:23;100599.16;;;21.13;42.30
5126;BME280;63008;53.112;8.896;2023-04-23T10:00:24;100601.97;;;21.13;41.49
5126;BME280;63008;53.112;8.896;2023-04-23T10:02:29;100608.75;;;21.05;43.63
5126;BME280;63008;53.112;8.896;2023-04-23T10:04:31;100606.78;;;21.06;43.30
5126;BME280;63008;53.112;8.896;2023-04-23T10:06:32;100609.44;;;21.23;41.45
5126;BME280;63008;53.112;8.896;2023-04-23T10:08:33;100602.88;;;20.93;41.71
5126;BME280;63008;53.112;8.896;2023-04-23T10:10:35;100600.09;;;20.86;47.64
5126;BME280;63008;53.112;8.896;2023-04-23T10:12:36;100600.97;;;21.37;41.12
5126;BME280;63008;53.112;8.896;2023-04-23T10:14:38;100600.06;;;21.54;40.74
5126;BME280;63008;53.112;8.896;2023-04-23T10:16:42;100593.38;;;21.38;45.08
5126;BME280;63008;53.112;8.896;2023-04-23T10:18:46;100593.38;;;21.41;42.49
5126;BME280;63008;53.112;8.896;2023-04-23T10:20:48;100590.75;;;21.71;44.07
5126;BME280;63008;53.112;8.896;2023-04-23T10:22:51;100595.94;;;21.73;40.05
5126;BME280;63008;53.112;8.896;2023-04-23T10:24:55;100584.88;;;21.99;39.51
5126;BME280;63008;53.112;8.896;2023-04-23T10:27:00;100595.97;;;21.69;39.23
5126;BME280;63008;53.112;8.896;2023-04-23T10:29:03;100597.91;;;21.21;40.31
5126;BME280;63008;53.112;8.896;2023-04-23T10:31:08;100599.16;;;21.13;40.49
5126;BME280;63008;53.112;8.896;2023-04-23T10:33:11;100605.38;;;21.35;41.20
5126;BME280;63008;53.112;8.896;2023-04-23T10:35:12;100590.63;;;21.34;40.98
5126;BME280;63008;53.112;8.896;2023-04-23T10:37:13;100599.22;;;21.57;39.64
5126;BME280;63008;53.112;8.896;2023-04-23T10:39:15;100592.84;;;21.02;40.83
5126;BME280;63008;53.112;8.896;2023-04-23T10:41:20;100579.75;;;21.47;40.12
5126;BME280;63008;53.112;8.896;2023-04-23T10:43:23;100567.41;;;21.44;40.02
5126;BME280;63008;53.112;8.896;2023-04-23T10:45:24;100573.69;;;21.59;42.10